createdAt,value
2023-05-17T00:00:44.329Z,9.37
2023-05-17T00:03:20.366Z,8.50
2023-05-17T00:05:51.760Z,11.00
2023-05-17T00:08:22.158Z,9.80
2023-05-17T00:10:51.523Z,11.40
2023-05-17T00:13:22.174Z,10.73
2023-05-17T00:15:53.751Z,10.30
2023-05-17T00:18:42.740Z,10.57
2023-05-17T00:21:19.745Z,13.20
2023-05-17T00:23:48.935Z,11.45
2023-05-17T00:26:20.090Z,12.10
2023-05-17T00:28:58.735Z,13.03
2023-05-17T00:31:27.682Z,13.80
2023-05-17T00:33:57.469Z,13.07
2023-05-17T00:36:28.814Z,14.03
2023-05-17T00:38:58.037Z,15.97
2023-05-17T00:41:27.616Z,11.93
2023-05-17T00:43:57.040Z,14.17
2023-05-17T00:46:30.561Z,12.43
2023-05-17T00:49:03.957Z,14.63
2023-05-17T00:51:34.783Z,13.00
2023-05-17T00:54:05.873Z,11.30
2023-05-17T00:56:36.813Z,17.63
2023-05-17T00:59:08.970Z,11.03
2023-05-17T01:01:43.776Z,14.97
2023-05-17T01:04:17.493Z,13.33
2023-05-17T01:06:51.222Z,15.57
2023-05-17T01:09:23.636Z,12.83
2023-05-17T01:11:58.160Z,17.67
2023-05-17T01:14:42.284Z,17.03
2023-05-17T01:17:25.308Z,18.67
2023-05-17T01:20:13.785Z,18.43
2023-05-17T01:22:54.059Z,17.77
2023-05-17T01:25:41.131Z,19.37
2023-05-17T01:28:12.351Z,17.53
2023-05-17T01:30:47.242Z,17.60
2023-05-17T01:33:19.622Z,18.37
2023-05-17T01:35:54.472Z,18.83
2023-05-17T01:38:27.037Z,17.10
2023-05-17T01:41:05.878Z,15.60
2023-05-17T01:43:46.049Z,17.53
2023-05-17T01:46:19.295Z,17.17
2023-05-17T01:49:03.417Z,16.33
2023-05-17T01:51:36.963Z,14.07
2023-05-17T01:54:11.643Z,15.43
2023-05-17T01:56:46.690Z,15.30
2023-05-17T01:59:21.352Z,17.77
2023-05-17T02:01:52.688Z,15.25
2023-05-17T02:04:30.830Z,16.93
2023-05-17T02:07:04.207Z,13.70
2023-05-17T02:09:35.226Z,13.07
2023-05-17T02:12:09.576Z,12.27
2023-05-17T02:14:41.734Z,13.37
2023-05-17T02:17:13.169Z,12.57
2023-05-17T02:19:42.406Z,14.00
2023-05-17T02:22:11.456Z,15.17
2023-05-17T02:24:43.558Z,13.43
2023-05-17T02:27:14.312Z,13.90
2023-05-17T02:29:43.683Z,10.27
2023-05-17T02:32:22.900Z,12.40
2023-05-17T02:35:00.503Z,12.13
2023-05-17T02:37:32.875Z,10.97
2023-05-17T02:40:02.012Z,11.03
2023-05-17T02:42:32.842Z,14.40
2023-05-17T02:45:04.947Z,15.77
2023-05-17T02:47:36.558Z,13.00
2023-05-17T02:50:10.778Z,13.07
2023-05-17T02:55:15.096Z,14.80
2023-05-17T02:57:49.472Z,13.90
2023-05-17T03:00:22.112Z,12.93
2023-05-17T03:02:51.637Z,13.63
2023-05-17T03:05:27.818Z,14.77
2023-05-17T03:08:00.640Z,16.67
2023-05-17T03:10:30.518Z,12.57
2023-05-17T03:13:06.659Z,15.07
2023-05-17T03:15:40.819Z,15.50
2023-05-17T03:18:17.038Z,14.37
2023-05-17T03:20:46.826Z,12.27
2023-05-17T03:23:16.101Z,13.95
2023-05-17T03:26:01.723Z,13.70
2023-05-17T03:28:36.184Z,13.63
2023-05-17T03:31:08.981Z,13.73
2023-05-17T03:33:41.109Z,13.33
2023-05-17T03:36:15.757Z,15.30
2023-05-17T03:38:47.929Z,14.20
2023-05-17T03:41:20.893Z,12.93
2023-05-17T03:43:55.646Z,13.53
2023-05-17T03:46:25.013Z,14.10
2023-05-17T03:49:00.157Z,13.20
2023-05-17T03:51:35.179Z,9.93
2023-05-17T03:54:11.590Z,11.10
2023-05-17T03:56:48.701Z,15.37
2023-05-17T03:59:25.570Z,13.97
2023-05-17T04:02:05.626Z,11.22
2023-05-17T04:04:48.589Z,10.65
2023-05-17T04:07:17.909Z,14.23
2023-05-17T04:09:47.989Z,10.77
2023-05-17T04:12:17.964Z,11.05
2023-05-17T04:14:50.305Z,11.27
2023-05-17T04:17:22.373Z,12.70
2023-05-17T04:19:52.901Z,10.97
2023-05-17T04:22:23.052Z,11.93
2023-05-17T04:24:54.694Z,10.37
2023-05-17T04:27:29.861Z,10.10
2023-05-17T04:29:59.592Z,11.20
2023-05-17T04:32:33.625Z,12.27
2023-05-17T04:35:03.363Z,10.37
2023-05-17T04:37:33.010Z,10.30
2023-05-17T04:40:17.158Z,11.07
2023-05-17T04:42:47.041Z,10.43
2023-05-17T04:45:24.015Z,9.43
2023-05-17T04:47:58.587Z,9.57
2023-05-17T04:50:30.298Z,10.78
2023-05-17T04:53:04.474Z,10.17
2023-05-17T04:55:37.990Z,11.27
2023-05-17T04:58:12.871Z,10.97
2023-05-17T05:00:48.101Z,11.23
2023-05-17T05:03:17.275Z,12.53
2023-05-17T05:05:52.150Z,10.07
2023-05-17T05:08:26.736Z,9.30
2023-05-17T05:11:02.415Z,10.17
2023-05-17T05:13:37.731Z,9.73
2023-05-17T05:16:12.983Z,8.03
2023-05-17T05:18:42.459Z,13.57
2023-05-17T05:21:11.935Z,10.50
2023-05-17T05:23:43.532Z,8.47
2023-05-17T05:26:13.142Z,10.47
2023-05-17T05:28:42.813Z,10.23
2023-05-17T05:31:14.628Z,11.17
2023-05-17T05:33:50.414Z,12.93
2023-05-17T05:36:22.341Z,13.03
2023-05-17T05:38:53.333Z,11.17
2023-05-17T05:41:26.419Z,8.93
2023-05-17T05:43:55.967Z,13.13
2023-05-17T05:46:28.443Z,9.33
2023-05-17T05:49:00.302Z,10.43
2023-05-17T05:51:31.035Z,12.30
2023-05-17T05:54:03.559Z,11.20
2023-05-17T05:56:32.857Z,9.20
2023-05-17T05:59:02.838Z,7.57
2023-05-17T06:01:33.589Z,7.67
2023-05-17T06:04:03.907Z,9.63
2023-05-17T06:06:35.272Z,8.27
2023-05-17T06:09:11.750Z,7.90
2023-05-17T06:11:40.797Z,9.93
2023-05-17T06:14:18.034Z,8.70
2023-05-17T06:16:50.993Z,7.97
2023-05-17T06:19:32.373Z,8.60
2023-05-17T06:22:01.750Z,9.33
2023-05-17T06:24:37.096Z,9.97
2023-05-17T06:27:14.100Z,8.80
2023-05-17T06:29:51.082Z,12.27
2023-05-17T06:32:20.269Z,11.07
2023-05-17T06:34:51.686Z,12.80
2023-05-17T06:37:22.372Z,12.27
2023-05-17T06:40:00.114Z,9.37
2023-05-17T06:42:39.566Z,9.83
2023-05-17T06:45:18.847Z,10.37
2023-05-17T06:47:50.342Z,9.30
2023-05-17T06:50:29.882Z,10.60
2023-05-17T06:53:11.222Z,8.13
2023-05-17T06:55:41.297Z,9.33
2023-05-17T06:58:19.130Z,7.43
2023-05-17T07:00:48.350Z,10.17
2023-05-17T07:03:18.030Z,8.33
2023-05-17T07:05:47.239Z,7.53
2023-05-17T07:08:16.161Z,9.97
2023-05-17T07:10:45.511Z,8.13
2023-05-17T07:13:15.284Z,8.07
2023-05-17T07:15:45.043Z,8.03
2023-05-17T07:18:16.325Z,6.93
2023-05-17T07:20:53.141Z,8.48
2023-05-17T07:23:24.934Z,8.30
2023-05-17T07:25:55.101Z,8.50
2023-05-17T07:28:32.227Z,7.77
2023-05-17T07:31:08.158Z,7.57
2023-05-17T07:33:38.393Z,7.07
2023-05-17T07:36:10.747Z,7.40
2023-05-17T07:38:40.042Z,6.60
2023-05-17T07:41:13.338Z,8.50
2023-05-17T07:43:45.192Z,8.10
2023-05-17T07:46:19.793Z,11.93
2023-05-17T07:48:54.458Z,7.07
2023-05-17T07:51:26.784Z,7.33
2023-05-17T07:53:55.985Z,8.47
2023-05-17T07:56:25.931Z,9.67
2023-05-17T07:58:59.237Z,10.00
2023-05-17T08:01:28.932Z,9.17
2023-05-17T08:04:00.791Z,10.57
2023-05-17T08:06:32.805Z,7.30
2023-05-17T08:09:01.772Z,7.53
2023-05-17T08:11:31.061Z,6.53
2023-05-17T08:14:05.149Z,6.97
2023-05-17T08:16:34.438Z,5.87
2023-05-17T08:19:03.847Z,6.30
2023-05-17T08:21:33.524Z,5.13
2023-05-17T08:24:04.063Z,5.73
2023-05-17T08:26:33.678Z,4.57
2023-05-17T08:29:04.169Z,6.33
2023-05-17T08:31:38.670Z,6.73
2023-05-17T08:34:10.400Z,4.20
2023-05-17T08:36:39.907Z,5.33
2023-05-17T08:39:10.324Z,5.07
2023-05-17T08:41:42.069Z,5.40
2023-05-17T08:44:13.532Z,5.03
2023-05-17T08:46:58.355Z,5.47
2023-05-17T08:49:34.271Z,6.47
2023-05-17T08:52:09.440Z,4.97
2023-05-17T08:54:42.683Z,5.40
2023-05-17T08:57:17.131Z,5.37
2023-05-17T08:59:49.468Z,5.63
2023-05-17T09:02:19.007Z,6.60
2023-05-17T09:04:56.288Z,5.63
2023-05-17T09:07:26.205Z,7.57
2023-05-17T09:09:55.304Z,6.57
2023-05-17T09:12:25.951Z,6.37
2023-05-17T09:15:15.360Z,8.43
2023-05-17T09:17:51.179Z,7.53
2023-05-17T09:20:25.565Z,12.77
2023-05-17T09:22:59.085Z,8.78
2023-05-17T09:28:11.049Z,9.13
2023-05-17T09:30:41.599Z,8.80
2023-05-17T09:33:15.085Z,8.93
2023-05-17T09:35:47.124Z,9.53
2023-05-17T09:38:16.059Z,10.53
2023-05-17T09:40:47.822Z,9.53
2023-05-17T09:43:23.121Z,10.10
2023-05-17T09:45:57.909Z,8.47
2023-05-17T09:48:33.322Z,9.13
2023-05-17T09:51:04.536Z,9.43
2023-05-17T09:53:39.475Z,10.17
2023-05-17T09:56:19.557Z,7.93
2023-05-17T09:58:53.018Z,9.33
2023-05-17T10:01:28.767Z,10.70
2023-05-17T10:04:01.386Z,12.67
2023-05-17T10:06:45.898Z,10.80
2023-05-17T10:09:23.242Z,9.40
2023-05-17T10:11:57.389Z,11.47
2023-05-17T10:17:01.233Z,11.80
2023-05-17T10:19:30.777Z,11.63
2023-05-17T10:22:18.342Z,10.63
2023-05-17T10:24:54.917Z,14.10
2023-05-17T10:27:30.772Z,12.10
2023-05-17T10:30:01.352Z,13.73
2023-05-17T10:32:32.636Z,15.27
2023-05-17T10:35:11.274Z,14.60
2023-05-17T10:37:44.977Z,14.73
2023-05-17T10:40:17.285Z,14.03
2023-05-17T10:42:50.885Z,12.00
2023-05-17T10:45:24.844Z,13.45
2023-05-17T10:50:24.605Z,13.60
2023-05-17T10:53:10.380Z,13.70
2023-05-17T10:55:42.207Z,10.60
2023-05-17T10:58:26.563Z,12.70
2023-05-17T11:00:56.828Z,12.33
2023-05-17T11:03:34.183Z,14.97
2023-05-17T11:06:25.265Z,16.30
2023-05-17T11:09:16.001Z,12.28
2023-05-17T11:12:09.075Z,11.30
2023-05-17T11:14:50.038Z,10.03
2023-05-17T11:17:21.707Z,11.17
2023-05-17T11:20:01.530Z,15.03
2023-05-17T11:22:38.105Z,19.10
2023-05-17T11:25:17.002Z,10.87
2023-05-17T11:27:49.100Z,10.97
2023-05-17T11:30:21.983Z,11.93
2023-05-17T11:32:54.379Z,12.65
2023-05-17T11:35:30.758Z,14.13
2023-05-17T11:38:17.837Z,10.63
2023-05-17T11:41:00.988Z,13.20
2023-05-17T11:43:31.310Z,11.73
2023-05-17T11:46:12.880Z,9.37
2023-05-17T11:48:45.745Z,14.43
2023-05-17T11:51:16.967Z,10.50
2023-05-17T11:53:48.715Z,12.93
2023-05-17T11:56:29.121Z,12.27
2023-05-17T11:59:06.321Z,11.10
2023-05-17T12:02:04.190Z,14.70
2023-05-17T12:04:38.061Z,14.30
2023-05-17T12:07:15.086Z,9.03
2023-05-17T12:09:48.378Z,12.03
2023-05-17T12:12:21.757Z,13.83
2023-05-17T12:14:52.261Z,12.63
2023-05-17T12:17:33.253Z,9.13
2023-05-17T12:20:16.990Z,12.13
2023-05-17T12:22:59.747Z,15.03
2023-05-17T12:25:32.836Z,12.17
2023-05-17T12:28:18.432Z,12.37
2023-05-17T12:30:54.939Z,13.93
2023-05-17T12:33:33.272Z,11.57
2023-05-17T12:36:08.692Z,14.43
2023-05-17T12:38:44.086Z,12.80
2023-05-17T12:41:19.047Z,15.13
2023-05-17T12:44:06.069Z,11.27
2023-05-17T12:47:29.429Z,15.17
2023-05-17T12:50:56.261Z,15.57
2023-05-17T12:53:54.056Z,14.33
2023-05-17T12:56:27.413Z,16.00
2023-05-17T12:59:11.005Z,11.40
2023-05-17T13:01:43.693Z,13.45
2023-05-17T13:04:13.564Z,11.47
2023-05-17T13:06:53.419Z,13.67
2023-05-17T13:09:27.455Z,16.73
2023-05-17T13:14:37.403Z,15.90
2023-05-17T13:17:09.669Z,12.90
2023-05-17T13:19:39.682Z,10.43
2023-05-17T13:22:12.862Z,13.17
2023-05-17T13:24:44.643Z,13.93
2023-05-17T13:27:15.337Z,14.37
2023-05-17T13:29:45.008Z,14.93
2023-05-17T13:32:16.506Z,16.70
2023-05-17T13:34:46.087Z,12.67
2023-05-17T13:37:15.534Z,11.27
2023-05-17T13:39:45.437Z,13.77
2023-05-17T13:42:18.281Z,15.60
2023-05-17T13:44:50.360Z,16.30
2023-05-17T13:47:19.737Z,12.73
2023-05-17T13:49:52.019Z,12.00
2023-05-17T13:52:25.639Z,12.80
2023-05-17T13:54:54.678Z,17.37
2023-05-17T13:57:23.850Z,12.97
2023-05-17T13:59:54.595Z,10.37
2023-05-17T14:02:24.672Z,12.93
2023-05-17T14:04:58.183Z,14.67
2023-05-17T14:07:29.790Z,16.67
2023-05-17T14:10:02.273Z,11.17
2023-05-17T14:12:34.700Z,13.33
2023-05-17T14:15:19.484Z,12.30
2023-05-17T14:17:50.272Z,10.37
2023-05-17T14:20:21.115Z,15.43
2023-05-17T14:22:51.583Z,11.63
2023-05-17T14:25:24.051Z,12.73
2023-05-17T14:28:01.978Z,14.20
2023-05-17T14:30:31.366Z,14.00
2023-05-17T14:33:12.703Z,12.17
2023-05-17T14:35:45.873Z,14.33
2023-05-17T14:38:15.263Z,10.40
2023-05-17T14:40:44.208Z,11.37
2023-05-17T14:43:15.949Z,13.40
2023-05-17T14:45:47.966Z,17.83
2023-05-17T14:48:27.588Z,13.63
2023-05-17T14:50:56.784Z,12.07
2023-05-17T14:53:30.595Z,10.50
2023-05-17T14:56:02.584Z,13.17
2023-05-17T14:58:33.993Z,13.37
2023-05-17T15:01:06.808Z,11.10
2023-05-17T15:03:38.047Z,11.33
2023-05-17T15:06:12.765Z,10.37
2023-05-17T15:08:46.333Z,10.93
2023-05-17T15:11:19.652Z,9.80
2023-05-17T15:13:50.763Z,9.63
2023-05-17T15:16:21.571Z,9.17
2023-05-17T15:18:54.811Z,12.13
2023-05-17T15:21:27.335Z,12.47
2023-05-17T15:23:56.650Z,9.90
2023-05-17T15:26:29.359Z,10.13
2023-05-17T15:29:02.996Z,8.53
2023-05-17T15:31:32.582Z,15.93
2023-05-17T15:34:01.621Z,10.57
2023-05-17T15:36:32.012Z,14.63
2023-05-17T15:39:01.593Z,10.43
2023-05-17T15:41:31.973Z,13.90
2023-05-17T15:44:02.179Z,12.03
2023-05-17T15:46:31.087Z,11.70
2023-05-17T15:49:00.874Z,8.90
2023-05-17T15:51:35.857Z,11.13
2023-05-17T15:54:06.068Z,10.03
2023-05-17T15:56:38.436Z,9.47
2023-05-17T15:59:15.792Z,12.63
2023-05-17T16:01:45.907Z,8.83
2023-05-17T16:04:19.553Z,11.53
2023-05-17T16:06:50.181Z,13.87
2023-05-17T16:09:24.430Z,13.43
2023-05-17T16:14:22.583Z,12.83
2023-05-17T16:16:55.833Z,11.90
2023-05-17T16:19:33.342Z,9.67
2023-05-17T16:22:08.411Z,9.43
2023-05-17T16:24:43.863Z,8.57
2023-05-17T16:27:14.793Z,9.83
2023-05-17T16:29:45.163Z,9.07
2023-05-17T16:32:18.785Z,12.77
2023-05-17T16:34:48.293Z,12.93
2023-05-17T16:37:22.552Z,12.97
2023-05-17T16:39:51.585Z,9.30
2023-05-17T16:42:20.635Z,11.63
2023-05-17T16:44:52.498Z,14.17
2023-05-17T16:47:23.232Z,11.13
2023-05-17T16:49:55.111Z,8.50
2023-05-17T16:52:29.500Z,11.83
2023-05-17T16:55:03.624Z,10.33
2023-05-17T16:57:33.893Z,11.90
2023-05-17T17:00:03.526Z,11.17
2023-05-17T17:02:38.376Z,14.23
2023-05-17T17:05:12.194Z,15.20
2023-05-17T17:07:42.185Z,12.33
2023-05-17T17:10:12.109Z,10.80
2023-05-17T17:12:42.529Z,10.27
2023-05-17T17:15:21.235Z,11.13
2023-05-17T17:17:53.225Z,13.73
2023-05-17T17:20:25.948Z,11.17
2023-05-17T17:23:00.125Z,9.03
2023-05-17T17:25:31.316Z,12.65
2023-05-17T17:28:10.915Z,12.33
2023-05-17T17:30:42.412Z,16.97
2023-05-17T17:33:13.061Z,13.33
2023-05-17T17:35:42.112Z,11.47
2023-05-17T17:38:16.381Z,11.30
2023-05-17T17:40:45.374Z,12.93
2023-05-17T17:43:17.416Z,13.97
2023-05-17T17:45:46.906Z,13.50
2023-05-17T17:48:16.829Z,10.83
2023-05-17T17:50:46.081Z,9.03
2023-05-17T17:53:19.724Z,16.43
2023-05-17T17:55:51.570Z,10.43
2023-05-17T17:58:23.568Z,9.03
2023-05-17T18:00:55.317Z,12.93
2023-05-17T18:03:44.121Z,15.07
2023-05-17T18:06:15.462Z,9.83
2023-05-17T18:08:44.587Z,9.17
2023-05-17T18:11:13.541Z,8.97
2023-05-17T18:13:42.860Z,14.73
2023-05-17T18:16:12.639Z,12.30
2023-05-17T18:18:42.127Z,12.63
2023-05-17T18:21:12.328Z,12.07
2023-05-17T18:23:41.390Z,9.10
2023-05-17T18:26:16.954Z,12.77
2023-05-17T18:28:45.933Z,14.77
2023-05-17T18:31:18.268Z,11.30
2023-05-17T18:33:57.272Z,11.00
2023-05-17T18:36:29.615Z,11.70
2023-05-17T18:39:00.431Z,11.50
2023-05-17T18:41:29.372Z,11.87
2023-05-17T18:44:02.409Z,12.93
2023-05-17T18:46:31.853Z,9.20
2023-05-17T18:49:07.830Z,13.50
2023-05-17T18:51:39.850Z,11.63
2023-05-17T18:54:13.175Z,9.10
2023-05-17T18:56:43.737Z,12.20
2023-05-17T18:59:15.600Z,18.93
2023-05-17T19:01:47.795Z,14.50
2023-05-17T19:04:17.562Z,14.43
2023-05-17T19:06:47.462Z,12.80
2023-05-17T19:09:17.433Z,14.13
2023-05-17T19:11:48.209Z,9.83
2023-05-17T19:14:17.416Z,16.33
2023-05-17T19:16:46.538Z,10.60
2023-05-17T19:19:16.455Z,12.10
2023-05-17T19:21:48.475Z,11.30
2023-05-17T19:24:18.350Z,13.83
2023-05-17T19:26:50.641Z,12.77
2023-05-17T19:29:30.876Z,14.10
2023-05-17T19:32:02.197Z,15.90
2023-05-17T19:34:31.560Z,13.07
2023-05-17T19:37:04.577Z,13.20
2023-05-17T19:39:37.037Z,12.83
2023-05-17T19:42:08.860Z,13.00
2023-05-17T19:44:42.920Z,17.20
2023-05-17T19:47:11.888Z,12.63
2023-05-17T19:49:51.944Z,15.50
2023-05-17T19:52:21.039Z,13.77
2023-05-17T19:54:52.342Z,15.50
2023-05-17T19:57:21.323Z,15.70
2023-05-17T19:59:52.160Z,17.17
2023-05-17T20:02:21.483Z,17.27
2023-05-17T20:04:51.230Z,20.45
2023-05-17T20:07:25.089Z,12.60
2023-05-17T20:09:54.063Z,16.85
2023-05-17T20:12:25.400Z,15.47
2023-05-17T20:14:57.191Z,12.90
2023-05-17T20:17:26.241Z,13.83
2023-05-17T20:19:55.149Z,20.60
2023-05-17T20:22:26.987Z,12.77
2023-05-17T20:24:57.935Z,16.80
2023-05-17T20:27:27.357Z,16.40
2023-05-17T20:29:56.375Z,15.60
2023-05-17T20:32:27.128Z,16.10
2023-05-17T20:34:56.299Z,15.47
2023-05-17T20:37:25.789Z,16.57
2023-05-17T20:39:56.952Z,12.83
2023-05-17T20:42:27.544Z,16.07
2023-05-17T20:44:59.023Z,16.80
2023-05-17T20:47:28.806Z,12.07
2023-05-17T20:49:59.284Z,17.47
2023-05-17T20:52:39.351Z,15.67
2023-05-17T20:55:13.036Z,19.87
2023-05-17T20:57:42.074Z,15.43
2023-05-17T21:00:17.942Z,17.07
2023-05-17T21:02:49.491Z,16.17
2023-05-17T21:05:22.434Z,17.60
2023-05-17T21:07:52.462Z,12.97
2023-05-17T21:10:23.136Z,18.87
2023-05-17T21:12:53.760Z,16.13
2023-05-17T21:15:24.519Z,16.43
2023-05-17T21:17:59.079Z,18.23
2023-05-17T21:20:28.015Z,15.90
2023-05-17T21:23:02.332Z,15.67
2023-05-17T21:25:31.306Z,15.87
2023-05-17T21:28:04.829Z,15.10
2023-05-17T21:30:33.806Z,15.70
2023-05-17T21:33:06.323Z,14.53
2023-05-17T21:35:36.037Z,17.67
2023-05-17T21:38:10.402Z,16.93
2023-05-17T21:40:40.247Z,15.77
2023-05-17T21:43:12.105Z,16.00
2023-05-17T21:45:41.396Z,16.13
2023-05-17T21:48:11.636Z,12.57
2023-05-17T21:50:40.781Z,17.03
2023-05-17T21:53:11.315Z,18.30
2023-05-17T21:55:51.264Z,18.20
2023-05-17T21:58:29.472Z,17.87
2023-05-17T22:00:58.613Z,23.03
2023-05-17T22:03:27.903Z,16.10
2023-05-17T22:05:57.384Z,15.80
2023-05-17T22:08:26.596Z,20.17
2023-05-17T22:11:00.806Z,19.53
2023-05-17T22:13:32.007Z,15.47
2023-05-17T22:16:01.383Z,16.47
2023-05-17T22:18:31.343Z,20.97
2023-05-17T22:21:00.816Z,15.30
2023-05-17T22:23:29.950Z,14.53
2023-05-17T22:26:00.665Z,17.95
2023-05-17T22:28:30.914Z,20.70
2023-05-17T22:30:59.856Z,12.03
2023-05-17T22:33:30.434Z,13.40
2023-05-17T22:36:01.964Z,16.43
2023-05-17T22:38:31.164Z,16.60
2023-05-17T22:41:00.706Z,19.63
2023-05-17T22:43:30.065Z,17.27
2023-05-17T22:45:59.385Z,19.37
2023-05-17T22:48:30.013Z,15.55
2023-05-17T22:51:00.731Z,13.73
2023-05-17T22:53:30.201Z,15.03
2023-05-17T22:55:59.446Z,18.43
2023-05-17T22:58:28.467Z,13.80
2023-05-17T23:00:58.913Z,13.23
2023-05-17T23:03:28.772Z,16.40
2023-05-17T23:06:02.709Z,11.00
2023-05-17T23:11:01.243Z,14.53
2023-05-17T23:13:30.351Z,12.77
2023-05-17T23:16:01.860Z,11.40
2023-05-17T23:18:35.867Z,17.53
2023-05-17T23:21:05.302Z,21.50
2023-05-17T23:23:34.192Z,15.17
2023-05-17T23:26:05.382Z,13.87
2023-05-17T23:28:34.992Z,14.27
2023-05-17T23:31:05.271Z,16.63
2023-05-17T23:33:36.929Z,12.27
2023-05-17T23:36:09.545Z,13.13
2023-05-17T23:38:38.708Z,14.00
2023-05-17T23:41:07.829Z,10.97
2023-05-17T23:43:37.860Z,11.63
2023-05-17T23:46:10.472Z,15.03
2023-05-17T23:48:39.451Z,11.27
2023-05-17T23:51:09.368Z,10.77
2023-05-17T23:53:38.311Z,13.20
2023-05-17T23:56:07.775Z,12.27
2023-05-17T23:58:39.785Z,11.70
